Time;durP1;ratioP1;P1;durP2;ratioP2;P2;SDS_P1;SDS_P2;PMS_P1;PMS_P2;Temp;Humidity;BMP_temperature;BMP_pressure;BME280_temperature;BME280_humidity;BME280_pressure;Samples;Min_cycle;Max_cycle;Signal;HPM_P1;HPM_P2
2023/07/28 00:06:17;;;;;;;1.60;1.40;;;;;;;15.73;100.00;97124.28;18434316;32;20083;-57
2023/07/28 00:16:20;;;;;;;1.85;1.55;;;;;;;15.63;100.00;97128.09;18433845;32;20392;-57
2023/07/28 00:26:22;;;;;;;3.53;1.80;;;;;;;15.61;100.00;97135.00;18419891;32;20083;-56
2023/07/28 00:36:25;;;;;;;2.62;2.10;;;;;;;15.51;100.00;97131.47;18432813;32;20041;-56
2023/07/28 00:46:28;;;;;;;3.05;1.80;;;;;;;15.44;100.00;97147.44;18418022;32;20057;-57
2023/07/28 00:56:31;;;;;;;2.00;1.62;;;;;;;15.38;100.00;97157.66;18431785;32;20094;-57
2023/07/28 01:06:57;;;;;;;1.60;1.40;;;;;;;15.33;100.00;97155.06;18417314;32;20365;-57
2023/07/28 01:17:00;;;;;;;3.28;1.87;;;;;;;15.29;100.00;97172.38;18431248;32;20068;-57
2023/07/28 01:27:03;;;;;;;2.42;1.70;;;;;;;15.18;100.00;97178.09;18440173;32;20096;-57
2023/07/28 01:37:06;;;;;;;2.70;1.97;;;;;;;15.14;100.00;97204.31;18423499;32;20341;-58
2023/07/28 01:47:09;;;;;;;3.30;1.75;;;;;;;15.08;100.00;97189.25;18428957;32;20062;-57
2023/07/28 01:57:12;;;;;;;2.42;1.50;;;;;;;15.04;100.00;97218.19;18442365;32;20437;-57
2023/07/28 02:07:15;;;;;;;1.80;1.50;;;;;;;15.00;100.00;97214.50;18442405;32;20097;-57
2023/07/28 02:17:17;;;;;;;1.45;1.35;;;;;;;14.99;100.00;97208.25;18441119;32;20050;-57
2023/07/28 02:27:20;;;;;;;1.92;1.50;;;;;;;15.02;100.00;97223.12;18426577;32;20057;-57
2023/07/28 02:37:23;;;;;;;2.87;1.75;;;;;;;15.01;100.00;97216.09;18439984;32;20064;-57
2023/07/28 02:47:25;;;;;;;2.87;2.20;;;;;;;15.11;100.00;97224.00;18412897;32;20079;-57
2023/07/28 02:57:28;;;;;;;2.92;1.60;;;;;;;15.16;100.00;97229.34;18438793;32;20041;-57
2023/07/28 03:07:31;;;;;;;2.42;1.35;;;;;;;15.28;100.00;97230.69;18438029;32;20064;-57
2023/07/28 03:17:34;;;;;;;2.58;1.70;;;;;;;15.28;100.00;97230.69;18437754;32;20057;-57
2023/07/28 03:27:36;;;;;;;3.15;1.60;;;;;;;15.20;100.00;97227.59;18430440;32;20057;-57
2023/07/28 03:37:39;;;;;;;2.83;2.10;;;;;;;15.13;100.00;97237.31;18436564;32;20083;-57
2023/07/28 03:47:42;;;;;;;3.37;1.83;;;;;;;15.05;100.00;97230.72;18435032;32;20049;-58
2023/07/28 03:57:45;;;;;;;3.08;1.80;;;;;;;14.99;100.00;97223.75;18435325;32;20087;-57
2023/07/28 04:07:47;;;;;;;4.12;1.70;;;;;;;14.96;100.00;97224.38;18420572;32;20080;-57
2023/07/28 04:17:50;;;;;;;3.28;2.12;;;;;;;14.94;100.00;97210.28;18433858;32;20050;-57
2023/07/28 04:27:54;;;;;;;2.92;1.90;;;;;;;14.94;100.00;97232.03;18433054;32;20049;-57
2023/07/28 04:37:57;;;;;;;2.85;1.98;;;;;;;14.96;100.00;97222.47;18432740;32;20045;-57
2023/07/28 04:48:00;;;;;;;2.37;1.50;;;;;;;15.02;100.00;97228.59;18432183;32;20058;-57
2023/07/28 04:58:03;;;;;;;2.33;1.70;;;;;;;15.22;100.00;97239.00;18431245;32;20085;-57
2023/07/28 05:08:06;;;;;;;1.70;1.42;;;;;;;15.49;100.00;97247.31;18431496;32;20091;-58
2023/07/28 05:18:09;;;;;;;3.28;1.45;;;;;;;15.81;100.00;97259.81;18424426;32;20057;-57
2023/07/28 05:28:12;;;;;;;1.80;1.35;;;;;;;16.19;100.00;97272.16;18430646;32;20052;-58
2023/07/28 05:38:15;;;;;;;1.83;1.30;;;;;;;16.70;100.00;97275.31;18430440;32;20076;-58
2023/07/28 05:48:18;;;;;;;1.92;1.50;;;;;;;16.85;100.00;97280.28;18416057;32;20064;-58
2023/07/28 05:58:21;;;;;;;2.90;1.50;;;;;;;16.92;100.00;97288.03;18430169;32;20046;-58
2023/07/28 06:08:23;;;;;;;1.33;1.10;;;;;;;17.41;100.00;97302.31;18432278;32;20049;-58
2023/07/28 06:18:26;;;;;;;2.93;1.70;;;;;;;18.00;100.00;97302.84;18441421;32;20506;-58
2023/07/28 06:28:29;;;;;;;2.00;1.35;;;;;;;18.59;100.00;97322.03;18440525;32;20442;-58
2023/07/28 06:38:32;;;;;;;1.77;1.60;;;;;;;19.17;100.00;97307.00;18425242;32;20045;-58
2023/07/28 06:48:35;;;;;;;2.47;1.50;;;;;;;20.21;100.00;97321.59;18424865;32;20102;-58
2023/07/28 06:58:38;;;;;;;2.30;1.60;;;;;;;21.35;100.00;97316.41;18438770;32;20061;-58
2023/07/28 07:08:41;;;;;;;2.83;1.70;;;;;;;22.03;100.00;97322.97;18431527;32;20107;-58
2023/07/28 07:18:44;;;;;;;3.35;1.52;;;;;;;21.97;100.00;97330.72;18436936;32;20087;-58
2023/07/28 07:28:47;;;;;;;1.75;1.30;;;;;;;21.86;100.00;97332.34;18436683;32;20092;-58
2023/07/28 07:38:50;;;;;;;1.83;1.60;;;;;;;21.99;100.00;97326.44;18436405;32;20045;-58
2023/07/28 07:48:53;;;;;;;2.35;1.58;;;;;;;22.25;100.00;97330.59;18435304;32;20050;-58
2023/07/28 07:58:56;;;;;;;;;;;;;;;22.43;100.00;97335.78;18415438;32;20068;-58
2023/07/28 08:08:59;;;;;;;2.63;1.70;;;;;;;22.60;100.00;97342.91;18434484;32;19968;-58
2023/07/28 08:19:02;;;;;;;1.95;1.40;;;;;;;23.07;100.00;97344.75;18420100;32;20053;-58
2023/07/28 08:29:08;;;;;;;3.15;1.90;;;;;;;23.32;100.00;97350.03;18433281;32;20082;-58
2023/07/28 08:39:11;;;;;;;2.12;1.70;;;;;;;23.33;100.00;97329.56;18432992;32;20053;-58
2023/07/28 08:49:14;;;;;;;2.72;1.80;;;;;;;23.30;100.00;97331.06;18432305;32;20049;-58
2023/07/28 08:59:28;;;;;;;2.12;1.70;;;;;;;23.31;100.00;97335.44;18392185;32;20069;-58
2023/07/28 09:09:33;;;;;;;2.17;1.90;;;;;;;23.41;100.00;97342.34;18431670;32;20057;-58
2023/07/28 09:19:56;;;;;;;2.17;1.75;;;;;;;23.41;100.00;97338.78;18431145;32;20065;-58
2023/07/28 09:30:03;;;;;;;2.30;1.73;;;;;;;23.47;100.00;97349.16;18416757;32;20090;-58
2023/07/28 09:40:11;;;;;;;2.30;2.00;;;;;;;24.28;100.00;97335.66;18430542;32;20049;-59
2023/07/28 09:50:22;;;;;;;2.97;2.00;;;;;;;25.61;100.00;97336.78;18421143;32;20422;-59
2023/07/28 10:00:26;;;;;;;2.12;1.90;;;;;;;26.69;90.52;97333.06;18428259;32;20124;-59
2023/07/28 10:10:29;;;;;;;2.22;1.83;;;;;;;27.12;85.17;97345.62;18427653;32;20064;-60
2023/07/28 10:20:38;;;;;;;3.60;2.40;;;;;;;26.60;92.88;97343.72;18426955;32;20037;-60
2023/07/28 10:30:53;;;;;;;3.62;2.03;;;;;;;26.17;89.75;97357.19;18425797;32;20498;-60
2023/07/28 10:41:09;;;;;;;4.07;1.92;;;;;;;25.79;100.00;97359.16;18413542;32;20113;-60
2023/07/28 10:51:19;;;;;;;2.72;1.80;;;;;;;25.53;99.91;97353.34;18373833;32;20058;-59
2023/07/28 11:01:30;;;;;;;4.03;2.00;;;;;;;25.31;100.00;97357.78;18360114;32;20059;-60
2023/07/28 11:11:36;;;;;;;2.50;1.90;;;;;;;25.47;100.00;97354.03;18360508;32;20061;-60
2023/07/28 11:21:41;;;;;;;3.15;2.10;;;;;;;25.66;100.00;97340.03;18359980;32;20120;-60
2023/07/28 11:31:44;;;;;;;3.40;2.50;;;;;;;25.96;100.00;97357.75;18371684;32;20472;-60
2023/07/28 11:41:48;;;;;;;3.78;2.42;;;;;;;26.51;100.00;97362.66;18372256;32;20358;-59
2023/07/28 11:51:54;;;;;;;5.45;2.33;;;;;;;26.37;91.23;97355.78;18428210;32;20365;-59
2023/07/28 12:02:05;;;;;;;3.03;2.72;;;;;;;25.98;100.00;97336.81;18435337;32;20061;-60
2023/07/28 12:12:13;;;;;;;3.42;2.40;;;;;;;26.53;100.00;97346.41;18434125;32;20072;-60
2023/07/28 12:22:19;;;;;;;4.30;2.97;;;;;;;27.69;100.00;97340.34;18434132;32;20067;-60
2023/07/28 12:32:24;;;;;;;3.78;2.83;;;;;;;27.80;93.56;97339.59;18404002;32;20041;-59
2023/07/28 12:42:37;;;;;;;3.78;2.40;;;;;;;27.67;89.85;97344.72;18429799;32;20365;-60
2023/07/28 12:52:43;;;;;;;3.28;2.33;;;;;;;27.55;88.95;97354.22;18417774;32;20076;-59
2023/07/28 13:02:50;;;;;;;4.18;2.33;;;;;;;27.44;83.65;97348.59;18431776;32;20364;-58
2023/07/28 13:35:15;;;;;;;2.03;1.80;;;;;;;26.43;90.87;97361.00;18430860;32;20054;-58
2023/07/28 13:45:20;;;;;;;2.70;2.00;;;;;;;26.07;86.22;97357.91;18430004;32;20353;-59
2023/07/28 13:55:24;;;;;;;2.78;1.98;;;;;;;26.30;91.84;97336.34;18430237;32;20490;-58
2023/07/28 14:05:29;;;;;;;2.95;2.00;;;;;;;26.74;89.97;97358.88;18429668;32;20045;-59
2023/07/28 14:15:33;;;;;;;1.98;1.45;;;;;;;27.59;88.64;97376.41;18429639;32;20076;-58
2023/07/28 14:25:36;;;;;;;2.60;1.73;;;;;;;27.47;85.36;97389.47;18396391;32;20117;-58
2023/07/28 14:35:39;;;;;;;1.90;1.60;;;;;;;26.53;94.42;97397.13;18438922;32;20095;-59
2023/07/28 14:45:42;;;;;;;4.05;1.60;;;;;;;25.70;100.00;97382.38;18425760;32;20437;-58
2023/07/28 14:55:45;;;;;;;2.62;1.92;;;;;;;25.20;100.00;97367.88;18439232;32;20361;-58
2023/07/28 15:05:48;;;;;;;2.30;1.40;;;;;;;25.17;100.00;97369.47;18438580;32;20080;-58
2023/07/28 15:15:52;;;;;;;2.17;1.33;;;;;;;25.21;100.00;97386.09;18423787;32;20088;-58
2023/07/28 15:25:57;;;;;;;1.55;1.20;;;;;;;24.99;100.00;97402.37;18437106;32;20089;-58
2023/07/28 15:36:00;;;;;;;1.45;1.20;;;;;;;24.43;100.00;97412.09;18423019;32;20057;-58
2023/07/28 15:46:04;;;;;;;1.87;1.17;;;;;;;23.97;100.00;97415.63;18420383;32;20169;-58
2023/07/28 15:56:07;;;;;;;1.73;1.00;;;;;;;23.52;100.00;97420.59;18435559;32;20445;-58
2023/07/28 16:06:10;;;;;;;1.23;0.85;;;;;;;23.25;100.00;97438.16;18434991;32;20088;-58
2023/07/28 16:16:13;;;;;;;1.80;0.93;;;;;;;23.05;100.00;97426.22;18420486;32;20392;-58
2023/07/28 16:26:16;;;;;;;3.42;1.00;;;;;;;22.67;100.00;97411.97;18433590;32;20061;-58
2023/07/28 16:36:20;;;;;;;1.25;0.82;;;;;;;22.51;100.00;97406.44;18433048;32;20373;-58
2023/07/28 16:46:22;;;;;;;;;;;;;;;22.52;100.00;97405.28;18432243;32;20058;-58
2023/07/28 16:56:25;;;;;;;1.73;0.93;;;;;;;22.55;100.00;97398.28;18418562;32;20266;-58
2023/07/28 17:06:28;;;;;;;1.10;0.70;;;;;;;22.94;100.00;97382.69;18411698;32;20080;-58
2023/07/28 17:16:30;;;;;;;;;;;;;;;23.38;100.00;97378.13;18417297;32;20069;-58
2023/07/28 17:26:33;;;;;;;1.70;1.20;;;;;;;23.56;100.00;97381.25;18431276;32;19941;-58
2023/07/28 17:36:37;;;;;;;1.23;0.70;;;;;;;23.65;100.00;97390.09;18430873;32;20377;-58
2023/07/28 17:46:40;;;;;;;1.30;0.90;;;;;;;23.84;100.00;97384.59;18429904;32;20068;-58
2023/07/28 17:56:44;;;;;;;1.73;1.20;;;;;;;23.83;100.00;97376.66;18430124;32;20373;-58
2023/07/28 18:06:46;;;;;;;;;;;;;;;23.52;100.00;97370.16;18421587;32;20098;-58
2023/07/28 18:16:49;;;;;;;1.10;0.80;;;;;;;23.07;100.00;97374.28;18441810;32;19975;-58
2023/07/28 18:26:52;;;;;;;1.10;0.90;;;;;;;22.60;100.00;97382.28;18441139;32;20065;-58
2023/07/28 18:36:55;;;;;;;;;;;;;;;22.16;100.00;97385.09;18440683;32;20343;-58
2023/07/28 18:46:58;;;;;;;1.52;0.80;;;;;;;21.77;100.00;97385.59;18426177;32;19953;-58
2023/07/28 18:57:00;;;;;;;1.42;0.80;;;;;;;21.40;100.00;97393.19;18432714;32;20057;-58
2023/07/28 19:07:04;;;;;;;1.30;0.95;;;;;;;21.01;100.00;97392.78;18438474;32;20089;-58
2023/07/28 19:17:07;;;;;;;1.33;0.80;;;;;;;20.64;100.00;97404.59;18437012;32;20057;-58
2023/07/28 19:27:10;;;;;;;4.32;1.10;;;;;;;20.29;100.00;97414.03;18411020;32;20438;-58
2023/07/28 19:37:31;;;;;;;;;;;;;;;;;;;;;
2023/07/28 19:47:54;;;;;;;1.05;0.60;;;;;;;19.89;100.00;97447.53;18433554;32;19945;-58
2023/07/28 19:57:58;;;;;;;1.27;0.80;;;;;;;19.66;100.00;97454.50;18435702;32;20076;-58
2023/07/28 20:08:02;;;;;;;2.12;1.40;;;;;;;19.41;100.00;97446.91;18435040;32;20083;-58
2023/07/28 20:18:06;;;;;;;2.42;1.85;;;;;;;19.23;100.00;97443.50;18420057;32;20057;-58
2023/07/28 20:28:09;;;;;;;4.10;1.65;;;;;;;19.07;100.00;97443.25;18433501;32;20532;-58
2023/07/28 20:38:12;;;;;;;2.10;1.63;;;;;;;18.96;100.00;97450.25;18419775;32;20086;-58
2023/07/28 20:48:15;;;;;;;3.83;2.00;;;;;;;18.82;100.00;97453.22;18418326;32;20040;-58
2023/07/28 20:58:18;;;;;;;;;;;;;;;18.74;100.00;97456.78;18418508;32;20154;-58
2023/07/28 21:08:21;;;;;;;5.70;2.30;;;;;;;18.73;100.00;97430.53;18431800;32;19960;-58
2023/07/28 21:18:25;;;;;;;3.53;2.30;;;;;;;18.70;100.00;97437.47;18431327;32;20081;-58
2023/07/28 21:28:28;;;;;;;2.55;1.30;;;;;;;18.71;100.00;97443.75;18430972;32;20072;-58
2023/07/28 21:38:32;;;;;;;1.52;1.30;;;;;;;18.68;100.00;97438.91;18426129;32;20077;-58
2023/07/28 21:48:35;;;;;;;1.90;1.40;;;;;;;18.59;100.00;97436.22;18443027;32;20057;-58
2023/07/28 21:58:43;;;;;;;5.53;1.73;;;;;;;18.58;100.00;97427.22;18443090;32;20376;-58
2023/07/28 22:08:46;;;;;;;2.00;1.73;;;;;;;18.56;100.00;97421.25;18442371;32;20396;-58
2023/07/28 22:18:49;;;;;;;3.12;1.60;;;;;;;18.54;100.00;97407.09;18442047;32;20052;-58
2023/07/28 22:28:52;;;;;;;2.23;1.47;;;;;;;18.49;100.00;97407.28;18427309;32;20050;-58
2023/07/28 22:38:55;;;;;;;1.80;1.50;;;;;;;18.42;100.00;97402.31;18440399;32;20479;-58
2023/07/28 22:48:58;;;;;;;3.10;1.60;;;;;;;18.38;100.00;97406.06;18425568;32;20061;-58
2023/07/28 22:59:01;;;;;;;1.50;1.40;;;;;;;18.27;100.00;97409.13;18425694;32;20058;-58
2023/07/28 23:09:04;;;;;;;2.17;1.77;;;;;;;18.12;100.00;97401.44;18438693;32;20087;-58
2023/07/28 23:19:08;;;;;;;2.62;1.70;;;;;;;18.06;100.00;97402.75;18437966;32;20057;-58
2023/07/28 23:29:12;;;;;;;2.42;1.87;;;;;;;18.00;100.00;97393.13;18430877;32;20065;-58
2023/07/28 23:39:14;;;;;;;;;;;;;;;17.93;100.00;97388.13;18437019;32;20490;-58
2023/07/28 23:49:18;;;;;;;2.62;1.75;;;;;;;17.87;100.00;97387.47;18436178;32;20234;-58
2023/07/28 23:59:21;;;;;;;2.10;1.50;;;;;;;17.76;100.00;97397.13;18435423;32;20072;-58
